Monday, May 30, 2016
08:48 UTC
  |  Log In   |  Register Free
Airport Search:

Okmulgee Regional Airport
(KOKM)

Okmulgee Regional Airport Diagram
No Airport Diagram Available

FAA data valid effective Mar 31 2016 - May 26 2016 (unless otherwise noted).

 
 
 
 
 
 
 
 
 
 
 
 
 
 
Current Aviation Weather for KOKM

Weather Summary


The most recent METAR observation for OKM was updated at: 12:55 UTC
METAR for KOKM is not available. Closest METAR is for KRVS
KOKM  (most recent observation was updatred at 30:08 UTC)
300835Z AUTO 25004KT 10SM VCTS CLR 21/20 A3002 RMK AO2 LTG DSNT S AND SW T02110203

KRVS  (22.4 nm SE)   (most recent observation was updated at 30:07 UTC)
300753Z 00000KT 10SM SCT055 22/18 A3003 RMK AO2 LTG DSNT N SLP170 T02170178

KMKO  (28.6 nm NW)   (most recent observation was updated at 30:07 UTC)
300753Z AUTO 15004KT 10SM CLR 20/17 A3003 RMK AO2 SLP160 T02000172 $

TAF for KOKM is not available.
KRVS  (22.4 nm SE)   (most recent observation was updatred at 30:05 UTC)
300520Z 3006/3106 00000KT P6SM VCTS FEW040CB BKN250 FM301500 16007KT P6SM SCT040 BKN250 PROB30 3019/3101 5SM -TSRA BKN040CB FM310200 16004KT P6SM BKN250


KTUL  (32.0 nm SW)   (most recent observation was updatred at 30:05 UTC)
300520Z 3006/3106 15004KT P6SM VCTS FEW040CB BKN250 FM301500 16009KT P6SM SCT040 BKN250 PROB30 3019/3101 5SM -TSRA BKN040CB FM310200 15007KT P6SM BKN250


GlobalAir.com is loading additional information.
 Current Weather at OKM
70.0 F° (21.3 C°)

winds at mph
Pressure:
in
Humidity:
97%
Wind:
at mph
Dew Point:
69.4 F° (20.8 C°)
Visibility:
10.00 mi
OKM NOAA Radar




Find All Airport Services Find A Hotel Find A Rental Car Find A Golf Course Find A Restaurant $100 Hamburger



Airport Weather Forecast for KOKM

Translated METAR for KOKM (0835 UTC)
METAR:
KOKM 300835Z AUTO 25004KT 10SM VCTS CLR 21/20 A3002 RMK AO2 LTG DSNT S AND SW T02110203
Conditions at:
KOKM (Okmulgee Rgnl, OK) observed 0835 UTC 30 May 2016
Temperature:
21°C (69.8°F)
Dewpoint:
20°C (68°F) [RH = 94]
Pressure:
30.02 inches Hg (1016.6 mb)
Winds:
from the WSW (250 degrees) at 4.6 mph (4 knots: 2.1 m/s)
Visibility:
10 mile(s)
Ceiling:
at least 12,000 feet AGL
Clouds:
Clear below 12,000 feet AGL
Remarks:
site is un-manned
site is automated and HAS a precipitation sensor

Translated TAF for KRVS (Richard Lloyd Jones Jr, OK) (0520 UTC)
TAF text:
KRVS 300520Z 3006/3106 00000KT P6SM VCTS FEW040CB BKN250
Forecast period:
Monday May 30 2016 06:00 UTC - Tuesday May 31 2016 06:00 UTC
Forecast type:
FROM: standard forecast or significant change
Winds:
from the N (000 degrees) at 0 mph (0 knots: 0 m/s)
Visibility:
6 or more mile(s) (9.7+ km)
Ceiling:
25,000 feet AGL
Clouds:
Broken Cloud Cover at 25,000 feet AGL
Weather:
Moderate In Vicinity Thunderstorm
TAF text:
FM301500 16007KT P6SM SCT040 BKN250 PROB30 3019/3101 5SM -TSRA BKN040CB
Forecast period:
Monday May 30 2016 15:00 UTC - Tuesday May 31 2016 02:00 UTC
Forecast type:
FROM: standard forecast or significant change
Winds:
from the SSE (160 degrees) at 8.1 mph (7 knots: 3.6 m/s)
Visibility:
6 or more mile(s) (9.7+ km)5 mile(s) (8 km)
Ceiling:
25,000 feet AGL
Clouds:
Scattered Clouds at 4,000 feet AGL
Broken Cloud Cover at 25,000 feet AGL
Weather:
Moderate Partial
TAF text:
FM310200 16004KT P6SM BKN250
Forecast period:
Tuesday May 31 2016 02:00 UTC - Tuesday May 31 2016 06:00 UTC
Forecast type:
FROM: standard forecast or significant change
Winds:
from the SSE (160 degrees) at 4.6 mph (4 knots: 2.1 m/s)
Visibility:
6 or more mile(s) (9.7+ km)
Ceiling:
25,000 feet AGL
Clouds:
Broken Cloud Cover at 25,000 feet AGL
Weather:
no significant weather observed at this time
FBO's on the Field
FBO Company Facility Photos Services Transportation Aviation Fuel Prices: Prices include tax
Catering Weather Repair Courtesy Rental Type 100LL JetA JetA+ MOGAS 8087
 
Okmulgee Regional Airport

This FBO has not yet been rated
FS:Phillips 66
Last Updated: May-09
Login to update fuel prices
SS:
Contact Okmulgee Regional AirportMore FBO Information
 
Add another FBO Facility Photos Catering Weather Repair Courtesy Rental Type 100LL JetA JetA+ MOGAS 8087
Services Transportation Aviation Fuel Prices: Prices include tax


model-print
model-print
model-print
model-print